sensor_id;sensor_type;location;lat;lon;timestamp;temperature;humidity
39899;DHT22;25571;47.876;10.642;2022-09-09T04:05:02;16.70;99.90
39899;DHT22;25571;47.876;10.642;2022-09-09T04:07:27;13.60;99.90
39899;DHT22;25571;47.876;10.642;2022-09-09T04:09:53;13.60;99.90
39899;DHT22;25571;47.876;10.642;2022-09-09T04:12:20;13.70;99.90
39899;DHT22;25571;47.876;10.642;2022-09-09T04:14:46;13.60;99.90
39899;DHT22;25571;47.876;10.642;2022-09-09T04:17:12;13.70;99.90
39899;DHT22;25571;47.876;10.642;2022-09-09T04:19:37;13.80;99.90
39899;DHT22;25571;47.876;10.642;2022-09-09T04:22:03;13.80;99.90
39899;DHT22;25571;47.876;10.642;2022-09-09T04:24:29;13.90;99.90
39899;DHT22;25571;47.876;10.642;2022-09-09T04:26:55;14.00;99.90
39899;DHT22;25571;47.876;10.642;2022-09-09T04:29:21;14.10;99.90
39899;DHT22;25571;47.876;10.642;2022-09-09T04:31:46;14.10;99.90
39899;DHT22;25571;47.876;10.642;2022-09-09T04:34:12;14.10;99.90
39899;DHT22;25571;47.876;10.642;2022-09-09T04:36:37;14.10;99.90
39899;DHT22;25571;47.876;10.642;2022-09-09T04:39:04;14.20;99.90
39899;DHT22;25571;47.876;10.642;2022-09-09T04:41:30;14.30;99.90
39899;DHT22;25571;47.876;10.642;2022-09-09T04:43:56;14.30;99.90
39899;DHT22;25571;47.876;10.642;2022-09-09T04:46:22;14.40;99.90
39899;DHT22;25571;47.876;10.642;2022-09-09T04:48:49;14.40;99.90
39899;DHT22;25571;47.876;10.642;2022-09-09T04:51:15;14.40;99.90
39899;DHT22;25571;47.876;10.642;2022-09-09T04:53:40;14.40;99.90
39899;DHT22;25571;47.876;10.642;2022-09-09T04:56:11;14.40;99.90
39899;DHT22;25571;47.876;10.642;2022-09-09T04:58:38;14.50;99.90
39899;DHT22;25571;47.876;10.642;2022-09-09T05:01:12;14.60;99.90
39899;DHT22;25571;47.876;10.642;2022-09-09T05:03:37;14.70;99.90
39899;DHT22;25571;47.876;10.642;2022-09-09T05:06:08;14.70;99.90
39899;DHT22;25571;47.876;10.642;2022-09-09T05:08:38;14.80;99.90
39899;DHT22;25571;47.876;10.642;2022-09-09T05:11:26;14.70;99.90
39899;DHT22;25571;47.876;10.642;2022-09-09T05:13:51;14.70;99.90
39899;DHT22;25571;47.876;10.642;2022-09-09T05:16:17;14.80;99.90
39899;DHT22;25571;47.876;10.642;2022-09-09T05:18:43;14.90;99.90
39899;DHT22;25571;47.876;10.642;2022-09-09T05:21:10;14.80;99.90
39899;DHT22;25571;47.876;10.642;2022-09-09T05:23:36;14.80;99.90
39899;DHT22;25571;47.876;10.642;2022-09-09T05:26:03;14.80;99.90
39899;DHT22;25571;47.876;10.642;2022-09-09T05:28:28;14.80;99.90
39899;DHT22;25571;47.876;10.642;2022-09-09T05:31:00;14.80;99.90
39899;DHT22;25571;47.876;10.642;2022-09-09T05:33:27;14.80;99.90
39899;DHT22;25571;47.876;10.642;2022-09-09T05:35:59;14.90;99.90
39899;DHT22;25571;47.876;10.642;2022-09-09T05:38:28;14.80;99.90
39899;DHT22;25571;47.876;10.642;2022-09-09T05:40:54;15.00;99.90
39899;DHT22;25571;47.876;10.642;2022-09-09T05:43:20;14.90;99.90
39899;DHT22;25571;47.876;10.642;2022-09-09T05:45:47;14.80;99.90
39899;DHT22;25571;47.876;10.642;2022-09-09T05:48:14;14.80;99.90
39899;DHT22;25571;47.876;10.642;2022-09-09T05:50:43;14.60;99.90
39899;DHT22;25571;47.876;10.642;2022-09-09T05:53:09;14.60;99.90
39899;DHT22;25571;47.876;10.642;2022-09-09T05:55:36;14.70;99.90
39899;DHT22;25571;47.876;10.642;2022-09-09T05:58:01;14.90;99.90
39899;DHT22;25571;47.876;10.642;2022-09-09T06:00:28;15.00;99.90
39899;DHT22;25571;47.876;10.642;2022-09-09T06:02:54;15.00;99.90
39899;DHT22;25571;47.876;10.642;2022-09-09T06:05:20;15.10;99.90
39899;DHT22;25571;47.876;10.642;2022-09-09T06:07:48;15.10;99.90
39899;DHT22;25571;47.876;10.642;2022-09-09T06:10:17;15.10;99.90
39899;DHT22;25571;47.876;10.642;2022-09-09T06:12:43;15.10;99.90
39899;DHT22;25571;47.876;10.642;2022-09-09T06:15:08;15.20;99.90
39899;DHT22;25571;47.876;10.642;2022-09-09T06:17:34;15.30;99.90
39899;DHT22;25571;47.876;10.642;2022-09-09T06:20:00;15.40;99.90
39899;DHT22;25571;47.876;10.642;2022-09-09T06:22:25;15.40;99.90
39899;DHT22;25571;47.876;10.642;2022-09-09T06:24:51;15.50;99.90
39899;DHT22;25571;47.876;10.642;2022-09-09T06:27:18;15.60;99.90
39899;DHT22;25571;47.876;10.642;2022-09-09T06:29:44;15.60;99.90
39899;DHT22;25571;47.876;10.642;2022-09-09T06:32:10;15.60;99.90
39899;DHT22;25571;47.876;10.642;2022-09-09T06:34:35;15.60;99.90
39899;DHT22;25571;47.876;10.642;2022-09-09T06:37:01;15.70;99.90
39899;DHT22;25571;47.876;10.642;2022-09-09T06:39:27;15.70;99.90
39899;DHT22;25571;47.876;10.642;2022-09-09T06:41:53;15.80;99.90
39899;DHT22;25571;47.876;10.642;2022-09-09T06:44:19;15.70;99.90
39899;DHT22;25571;47.876;10.642;2022-09-09T06:46:45;15.80;99.90
39899;DHT22;25571;47.876;10.642;2022-09-09T06:49:13;15.90;99.90
39899;DHT22;25571;47.876;10.642;2022-09-09T06:51:39;15.80;99.90
39899;DHT22;25571;47.876;10.642;2022-09-09T06:54:08;15.80;99.90
39899;DHT22;25571;47.876;10.642;2022-09-09T06:56:37;15.80;99.90
39899;DHT22;25571;47.876;10.642;2022-09-09T06:59:06;15.90;99.90
39899;DHT22;25571;47.876;10.642;2022-09-09T07:01:36;15.90;99.90
39899;DHT22;25571;47.876;10.642;2022-09-09T07:04:03;15.90;99.90
39899;DHT22;25571;47.876;10.642;2022-09-09T07:06:31;16.00;99.90
39899;DHT22;25571;47.876;10.642;2022-09-09T07:08:59;16.10;99.90
39899;DHT22;25571;47.876;10.642;2022-09-09T07:11:30;16.10;99.90
39899;DHT22;25571;47.876;10.642;2022-09-09T07:13:57;16.10;99.90
39899;DHT22;25571;47.876;10.642;2022-09-09T07:16:23;16.20;99.90
39899;DHT22;25571;47.876;10.642;2022-09-09T07:18:50;16.20;99.90
39899;DHT22;25571;47.876;10.642;2022-09-09T07:21:16;16.20;99.90
39899;DHT22;25571;47.876;10.642;2022-09-09T07:23:42;16.20;99.90
39899;DHT22;25571;47.876;10.642;2022-09-09T07:26:16;16.20;99.90
39899;DHT22;25571;47.876;10.642;2022-09-09T07:28:42;16.30;99.90
39899;DHT22;25571;47.876;10.642;2022-09-09T07:31:17;16.40;99.90
39899;DHT22;25571;47.876;10.642;2022-09-09T07:33:44;16.40;99.90
39899;DHT22;25571;47.876;10.642;2022-09-09T07:36:14;16.50;99.90
39899;DHT22;25571;47.876;10.642;2022-09-09T07:38:41;16.50;99.90
39899;DHT22;25571;47.876;10.642;2022-09-09T07:41:10;16.50;99.90
39899;DHT22;25571;47.876;10.642;2022-09-09T07:43:40;16.50;99.90
39899;DHT22;25571;47.876;10.642;2022-09-09T07:46:06;16.50;99.90
39899;DHT22;25571;47.876;10.642;2022-09-09T07:48:32;16.60;99.90
39899;DHT22;25571;47.876;10.642;2022-09-09T07:51:14;16.70;99.90
39899;DHT22;25571;47.876;10.642;2022-09-09T07:53:42;16.60;99.90
39899;DHT22;25571;47.876;10.642;2022-09-09T07:56:10;16.70;99.90
39899;DHT22;25571;47.876;10.642;2022-09-09T07:58:40;16.80;99.90
39899;DHT22;25571;47.876;10.642;2022-09-09T08:01:08;16.70;99.90
39899;DHT22;25571;47.876;10.642;2022-09-09T08:03:34;16.70;99.90
39899;DHT22;25571;47.876;10.642;2022-09-09T08:06:01;16.80;99.90
39899;DHT22;25571;47.876;10.642;2022-09-09T08:08:28;16.80;99.90
39899;DHT22;25571;47.876;10.642;2022-09-09T08:11:00;16.80;99.90
39899;DHT22;25571;47.876;10.642;2022-09-09T08:13:26;16.80;99.90
39899;DHT22;25571;47.876;10.642;2022-09-09T08:15:52;16.80;99.90
39899;DHT22;25571;47.876;10.642;2022-09-09T08:18:18;16.80;99.90
39899;DHT22;25571;47.876;10.642;2022-09-09T08:20:43;16.90;99.90
39899;DHT22;25571;47.876;10.642;2022-09-09T08:23:09;16.90;99.90
39899;DHT22;25571;47.876;10.642;2022-09-09T08:25:34;16.90;99.90
39899;DHT22;25571;47.876;10.642;2022-09-09T08:28:00;16.90;99.90
39899;DHT22;25571;47.876;10.642;2022-09-09T08:30:25;16.90;99.90
39899;DHT22;25571;47.876;10.642;2022-09-09T08:32:52;16.90;99.90
39899;DHT22;25571;47.876;10.642;2022-09-09T08:35:17;16.80;99.90
39899;DHT22;25571;47.876;10.642;2022-09-09T08:37:43;16.90;99.90
39899;DHT22;25571;47.876;10.642;2022-09-09T08:40:17;16.90;99.90
39899;DHT22;25571;47.876;10.642;2022-09-09T08:42:48;17.00;99.90
39899;DHT22;25571;47.876;10.642;2022-09-09T08:45:35;17.00;99.90
39899;DHT22;25571;47.876;10.642;2022-09-09T08:48:06;17.10;99.90
39899;DHT22;25571;47.876;10.642;2022-09-09T08:50:37;17.20;99.90
39899;DHT22;25571;47.876;10.642;2022-09-09T08:53:11;17.20;99.90
39899;DHT22;25571;47.876;10.642;2022-09-09T08:55:54;17.20;99.90
39899;DHT22;25571;47.876;10.642;2022-09-09T08:58:33;17.20;99.90
39899;DHT22;25571;47.876;10.642;2022-09-09T09:09:35;17.20;99.90
39899;DHT22;25571;47.876;10.642;2022-09-09T09:12:30;17.20;99.90
39899;DHT22;25571;47.876;10.642;2022-09-09T09:14:54;17.20;99.90
39899;DHT22;25571;47.876;10.642;2022-09-09T09:17:24;17.30;99.90
39899;DHT22;25571;47.876;10.642;2022-09-09T09:19:50;17.20;99.90
39899;DHT22;25571;47.876;10.642;2022-09-09T09:22:21;17.20;99.90
39899;DHT22;25571;47.876;10.642;2022-09-09T09:27:36;17.20;99.90
39899;DHT22;25571;47.876;10.642;2022-09-09T09:30:16;17.30;99.90
39899;DHT22;25571;47.876;10.642;2022-09-09T09:32:54;17.20;99.90
39899;DHT22;25571;47.876;10.642;2022-09-09T09:35:20;17.20;99.90
39899;DHT22;25571;47.876;10.642;2022-09-09T09:37:47;17.20;99.90
39899;DHT22;25571;47.876;10.642;2022-09-09T09:40:19;17.20;99.90
39899;DHT22;25571;47.876;10.642;2022-09-09T09:42:58;17.20;99.90
39899;DHT22;25571;47.876;10.642;2022-09-09T09:45:40;17.20;99.90
39899;DHT22;25571;47.876;10.642;2022-09-09T09:48:10;17.30;99.90
39899;DHT22;25571;47.876;10.642;2022-09-09T09:50:56;17.20;99.90
39899;DHT22;25571;47.876;10.642;2022-09-09T09:53:26;17.20;99.90
39899;DHT22;25571;47.876;10.642;2022-09-09T09:55:56;17.30;99.90
39899;DHT22;25571;47.876;10.642;2022-09-09T09:58:23;17.30;99.90
39899;DHT22;25571;47.876;10.642;2022-09-09T10:00:52;17.40;99.90
39899;DHT22;25571;47.876;10.642;2022-09-09T10:03:25;17.40;99.90
39899;DHT22;25571;47.876;10.642;2022-09-09T10:05:52;17.40;99.90
39899;DHT22;25571;47.876;10.642;2022-09-09T10:08:18;17.50;99.90
39899;DHT22;25571;47.876;10.642;2022-09-09T10:13:28;17.40;99.90
39899;DHT22;25571;47.876;10.642;2022-09-09T10:16:09;17.30;99.90
39899;DHT22;25571;47.876;10.642;2022-09-09T10:26:51;17.20;99.90
39899;DHT22;25571;47.876;10.642;2022-09-09T10:29:47;17.20;99.90
39899;DHT22;25571;47.876;10.642;2022-09-09T10:32:36;17.20;99.90
39899;DHT22;25571;47.876;10.642;2022-09-09T10:35:29;17.10;99.90
39899;DHT22;25571;47.876;10.642;2022-09-09T10:53:35;16.90;99.90
39899;DHT22;25571;47.876;10.642;2022-09-09T10:56:16;16.90;99.90
39899;DHT22;25571;47.876;10.642;2022-09-09T10:58:50;16.90;99.90
39899;DHT22;25571;47.876;10.642;2022-09-09T11:01:52;16.80;99.90
39899;DHT22;25571;47.876;10.642;2022-09-09T11:04:33;16.80;99.90
39899;DHT22;25571;47.876;10.642;2022-09-09T11:07:05;16.70;99.90
39899;DHT22;25571;47.876;10.642;2022-09-09T11:09:38;16.70;99.90
39899;DHT22;25571;47.876;10.642;2022-09-09T11:12:05;16.90;99.90
39899;DHT22;25571;47.876;10.642;2022-09-09T11:14:44;16.80;99.90
39899;DHT22;25571;47.876;10.642;2022-09-09T11:17:33;16.80;99.90
39899;DHT22;25571;47.876;10.642;2022-09-09T11:20:02;16.80;99.90
39899;DHT22;25571;47.876;10.642;2022-09-09T11:30:59;17.00;99.90
39899;DHT22;25571;47.876;10.642;2022-09-09T11:38:34;16.80;99.90
39899;DHT22;25571;47.876;10.642;2022-09-09T11:41:05;16.80;99.90
39899;DHT22;25571;47.876;10.642;2022-09-09T11:43:41;16.80;99.90
39899;DHT22;25571;47.876;10.642;2022-09-09T11:46:08;16.80;99.90
39899;DHT22;25571;47.876;10.642;2022-09-09T11:48:41;16.90;99.90
39899;DHT22;25571;47.876;10.642;2022-09-09T11:51:27;17.00;99.90
39899;DHT22;25571;47.876;10.642;2022-09-09T11:54:31;17.20;99.90
39899;DHT22;25571;47.876;10.642;2022-09-09T11:56:57;17.20;99.90
39899;DHT22;25571;47.876;10.642;2022-09-09T11:59:26;17.20;99.90
39899;DHT22;25571;47.876;10.642;2022-09-09T12:02:09;17.30;99.90
39899;DHT22;25571;47.876;10.642;2022-09-09T12:04:46;17.30;99.90
39899;DHT22;25571;47.876;10.642;2022-09-09T12:08:08;17.40;99.90
39899;DHT22;25571;47.876;10.642;2022-09-09T12:10:30;17.40;99.90
39899;DHT22;25571;47.876;10.642;2022-09-09T12:13:17;17.60;99.90
39899;DHT22;25571;47.876;10.642;2022-09-09T12:15:55;17.70;99.90
39899;DHT22;25571;47.876;10.642;2022-09-09T12:18:35;17.80;99.90
39899;DHT22;25571;47.876;10.642;2022-09-09T12:24:11;18.00;99.90
39899;DHT22;25571;47.876;10.642;2022-09-09T12:31:56;18.40;99.90
39899;DHT22;25571;47.876;10.642;2022-09-09T12:34:35;18.50;99.90
39899;DHT22;25571;47.876;10.642;2022-09-09T12:39:43;18.40;99.90
39899;DHT22;25571;47.876;10.642;2022-09-09T12:42:20;18.50;99.90
39899;DHT22;25571;47.876;10.642;2022-09-09T12:47:24;18.50;99.90
39899;DHT22;25571;47.876;10.642;2022-09-09T12:49:51;18.50;99.90
39899;DHT22;25571;47.876;10.642;2022-09-09T12:52:37;18.60;99.90
39899;DHT22;25571;47.876;10.642;2022-09-09T12:55:05;18.80;99.90
39899;DHT22;25571;47.876;10.642;2022-09-09T12:57:37;19.00;99.90
39899;DHT22;25571;47.876;10.642;2022-09-09T13:00:12;19.10;99.90
39899;DHT22;25571;47.876;10.642;2022-09-09T13:02:47;18.80;98.90
39899;DHT22;25571;47.876;10.642;2022-09-09T13:05:28;18.90;99.80
39899;DHT22;25571;47.876;10.642;2022-09-09T13:08:05;18.90;99.60
39899;DHT22;25571;47.876;10.642;2022-09-09T13:10:35;19.00;99.90
39899;DHT22;25571;47.876;10.642;2022-09-09T13:13:01;19.00;97.50
39899;DHT22;25571;47.876;10.642;2022-09-09T13:15:28;18.90;97.70
39899;DHT22;25571;47.876;10.642;2022-09-09T13:17:57;18.90;99.50
39899;DHT22;25571;47.876;10.642;2022-09-09T13:20:23;18.90;98.60
39899;DHT22;25571;47.876;10.642;2022-09-09T13:22:51;18.90;98.90
39899;DHT22;25571;47.876;10.642;2022-09-09T13:25:26;19.00;99.80
39899;DHT22;25571;47.876;10.642;2022-09-09T13:27:57;19.00;98.60
39899;DHT22;25571;47.876;10.642;2022-09-09T13:30:34;19.00;98.00
39899;DHT22;25571;47.876;10.642;2022-09-09T13:35:54;18.90;95.70
39899;DHT22;25571;47.876;10.642;2022-09-09T13:38:21;19.00;94.90
39899;DHT22;25571;47.876;10.642;2022-09-09T13:41:04;19.00;96.30
39899;DHT22;25571;47.876;10.642;2022-09-09T13:43:43;19.30;96.60
39899;DHT22;25571;47.876;10.642;2022-09-09T13:48:55;19.10;96.30
39899;DHT22;25571;47.876;10.642;2022-09-09T13:51:47;19.20;94.90
39899;DHT22;25571;47.876;10.642;2022-09-09T13:54:14;19.20;95.20
39899;DHT22;25571;47.876;10.642;2022-09-09T13:56:41;19.20;95.50
39899;DHT22;25571;47.876;10.642;2022-09-09T13:59:18;19.20;96.20
39899;DHT22;25571;47.876;10.642;2022-09-09T14:01:45;19.20;95.20
39899;DHT22;25571;47.876;10.642;2022-09-09T14:04:10;19.00;95.10
39899;DHT22;25571;47.876;10.642;2022-09-09T14:06:37;18.90;95.70
39899;DHT22;25571;47.876;10.642;2022-09-09T14:09:04;18.80;95.10
39899;DHT22;25571;47.876;10.642;2022-09-09T14:11:29;18.70;95.40
39899;DHT22;25571;47.876;10.642;2022-09-09T14:13:55;18.80;97.00
39899;DHT22;25571;47.876;10.642;2022-09-09T14:16:21;18.80;94.60
39899;DHT22;25571;47.876;10.642;2022-09-09T14:18:47;18.80;95.50
39899;DHT22;25571;47.876;10.642;2022-09-09T14:21:13;18.70;95.20
39899;DHT22;25571;47.876;10.642;2022-09-09T14:23:41;18.80;96.00
39899;DHT22;25571;47.876;10.642;2022-09-09T14:26:06;18.80;95.20
39899;DHT22;25571;47.876;10.642;2022-09-09T14:28:32;18.90;96.10
39899;DHT22;25571;47.876;10.642;2022-09-09T14:31:02;18.80;95.60
39899;DHT22;25571;47.876;10.642;2022-09-09T14:33:29;18.80;96.60
39899;DHT22;25571;47.876;10.642;2022-09-09T14:35:59;18.80;97.50
39899;DHT22;25571;47.876;10.642;2022-09-09T14:38:28;18.80;97.40
39899;DHT22;25571;47.876;10.642;2022-09-09T14:40:54;18.70;97.30
39899;DHT22;25571;47.876;10.642;2022-09-09T14:43:19;18.80;98.00
39899;DHT22;25571;47.876;10.642;2022-09-09T14:45:46;18.90;96.50
39899;DHT22;25571;47.876;10.642;2022-09-09T14:48:13;18.90;95.50
39899;DHT22;25571;47.876;10.642;2022-09-09T14:50:40;18.80;95.50
39899;DHT22;25571;47.876;10.642;2022-09-09T14:53:07;18.90;96.50
39899;DHT22;25571;47.876;10.642;2022-09-09T14:55:34;18.80;97.60
39899;DHT22;25571;47.876;10.642;2022-09-09T14:58:00;18.80;97.10
39899;DHT22;25571;47.876;10.642;2022-09-09T15:00:25;18.70;96.90
39899;DHT22;25571;47.876;10.642;2022-09-09T15:02:55;18.70;96.20
39899;DHT22;25571;47.876;10.642;2022-09-09T15:05:21;18.80;97.00
39899;DHT22;25571;47.876;10.642;2022-09-09T15:07:47;18.80;95.10
39899;DHT22;25571;47.876;10.642;2022-09-09T15:10:14;18.80;96.30
39899;DHT22;25571;47.876;10.642;2022-09-09T15:12:40;18.80;97.00
39899;DHT22;25571;47.876;10.642;2022-09-09T15:15:07;18.80;96.80
39899;DHT22;25571;47.876;10.642;2022-09-09T15:17:33;18.80;97.00
39899;DHT22;25571;47.876;10.642;2022-09-09T15:19:59;18.90;95.90
39899;DHT22;25571;47.876;10.642;2022-09-09T15:22:25;18.90;94.50
39899;DHT22;25571;47.876;10.642;2022-09-09T15:24:50;18.90;95.30
39899;DHT22;25571;47.876;10.642;2022-09-09T15:27:16;18.90;94.40
39899;DHT22;25571;47.876;10.642;2022-09-09T15:29:42;18.80;95.20
39899;DHT22;25571;47.876;10.642;2022-09-09T15:32:08;18.90;94.50
39899;DHT22;25571;47.876;10.642;2022-09-09T15:34:34;18.90;94.20
39899;DHT22;25571;47.876;10.642;2022-09-09T15:37:00;18.90;94.10
39899;DHT22;25571;47.876;10.642;2022-09-09T15:39:25;18.90;93.60
39899;DHT22;25571;47.876;10.642;2022-09-09T15:41:51;18.80;93.70
39899;DHT22;25571;47.876;10.642;2022-09-09T15:44:17;18.90;93.50
39899;DHT22;25571;47.876;10.642;2022-09-09T15:46:51;18.90;92.10
39899;DHT22;25571;47.876;10.642;2022-09-09T15:49:26;18.80;93.20
39899;DHT22;25571;47.876;10.642;2022-09-09T15:51:56;18.70;93.00
39899;DHT22;25571;47.876;10.642;2022-09-09T15:54:31;18.80;93.60
39899;DHT22;25571;47.876;10.642;2022-09-09T15:57:00;18.80;93.20
39899;DHT22;25571;47.876;10.642;2022-09-09T15:59:27;18.70;93.40
39899;DHT22;25571;47.876;10.642;2022-09-09T16:01:53;18.70;93.60
39899;DHT22;25571;47.876;10.642;2022-09-09T16:04:21;18.70;94.20
39899;DHT22;25571;47.876;10.642;2022-09-09T16:07:04;18.60;93.80
39899;DHT22;25571;47.876;10.642;2022-09-09T16:09:33;18.70;94.10
39899;DHT22;25571;47.876;10.642;2022-09-09T16:12:00;18.70;93.80
39899;DHT22;25571;47.876;10.642;2022-09-09T16:14:27;18.70;93.80
39899;DHT22;25571;47.876;10.642;2022-09-09T16:16:53;18.70;93.90
39899;DHT22;25571;47.876;10.642;2022-09-09T16:19:19;18.70;92.90
39899;DHT22;25571;47.876;10.642;2022-09-09T16:21:47;18.60;93.80
39899;DHT22;25571;47.876;10.642;2022-09-09T16:24:16;18.50;94.00
39899;DHT22;25571;47.876;10.642;2022-09-09T16:26:44;18.60;93.50
39899;DHT22;25571;47.876;10.642;2022-09-09T16:29:11;18.60;93.30
39899;DHT22;25571;47.876;10.642;2022-09-09T16:31:37;18.60;93.50
39899;DHT22;25571;47.876;10.642;2022-09-09T16:34:03;18.60;93.40
39899;DHT22;25571;47.876;10.642;2022-09-09T16:36:30;18.60;94.20
39899;DHT22;25571;47.876;10.642;2022-09-09T16:39:03;18.60;93.80
39899;DHT22;25571;47.876;10.642;2022-09-09T16:41:29;18.60;93.70
39899;DHT22;25571;47.876;10.642;2022-09-09T16:43:57;18.50;94.00
39899;DHT22;25571;47.876;10.642;2022-09-09T16:46:25;18.50;93.80
39899;DHT22;25571;47.876;10.642;2022-09-09T16:48:51;18.50;93.40
39899;DHT22;25571;47.876;10.642;2022-09-09T16:51:29;18.50;94.20
39899;DHT22;25571;47.876;10.642;2022-09-09T16:53:57;18.40;94.60
39899;DHT22;25571;47.876;10.642;2022-09-09T16:56:25;18.50;94.30
39899;DHT22;25571;47.876;10.642;2022-09-09T16:59:02;18.40;94.30
39899;DHT22;25571;47.876;10.642;2022-09-09T17:01:30;18.40;94.50
39899;DHT22;25571;47.876;10.642;2022-09-09T17:03:58;18.40;94.90
39899;DHT22;25571;47.876;10.642;2022-09-09T17:06:24;18.30;94.80
39899;DHT22;25571;47.876;10.642;2022-09-09T17:08:57;18.30;94.40
39899;DHT22;25571;47.876;10.642;2022-09-09T17:11:23;18.20;94.50
39899;DHT22;25571;47.876;10.642;2022-09-09T17:13:50;18.20;94.40
39899;DHT22;25571;47.876;10.642;2022-09-09T17:16:18;18.20;95.00
39899;DHT22;25571;47.876;10.642;2022-09-09T17:18:45;18.20;94.50
39899;DHT22;25571;47.876;10.642;2022-09-09T17:21:17;18.10;95.70
39899;DHT22;25571;47.876;10.642;2022-09-09T17:23:44;18.10;95.50
39899;DHT22;25571;47.876;10.642;2022-09-09T17:26:14;18.00;95.10
39899;DHT22;25571;47.876;10.642;2022-09-09T17:28:40;18.00;95.20
39899;DHT22;25571;47.876;10.642;2022-09-09T17:31:08;18.00;95.40
39899;DHT22;25571;47.876;10.642;2022-09-09T17:33:36;17.90;95.60
39899;DHT22;25571;47.876;10.642;2022-09-09T17:36:17;17.80;95.90
39899;DHT22;25571;47.876;10.642;2022-09-09T17:38:42;17.70;96.20
39899;DHT22;25571;47.876;10.642;2022-09-09T17:41:20;17.70;96.50
39899;DHT22;25571;47.876;10.642;2022-09-09T17:43:46;17.60;96.80
39899;DHT22;25571;47.876;10.642;2022-09-09T17:46:19;17.50;97.10
39899;DHT22;25571;47.876;10.642;2022-09-09T17:48:49;17.60;97.10
39899;DHT22;25571;47.876;10.642;2022-09-09T17:51:19;17.50;96.40
39899;DHT22;25571;47.876;10.642;2022-09-09T17:53:47;17.40;96.40
39899;DHT22;25571;47.876;10.642;2022-09-09T17:56:15;17.30;96.70
39899;DHT22;25571;47.876;10.642;2022-09-09T17:58:42;17.20;96.70
39899;DHT22;25571;47.876;10.642;2022-09-09T18:01:31;17.20;96.80
39899;DHT22;25571;47.876;10.642;2022-09-09T18:04:03;17.10;96.70
39899;DHT22;25571;47.876;10.642;2022-09-09T18:06:36;17.00;97.00
39899;DHT22;25571;47.876;10.642;2022-09-09T18:09:05;16.90;97.20
39899;DHT22;25571;47.876;10.642;2022-09-09T18:11:35;16.90;97.30
39899;DHT22;25571;47.876;10.642;2022-09-09T18:14:04;16.90;97.40
39899;DHT22;25571;47.876;10.642;2022-09-09T18:16:32;16.90;97.40
39899;DHT22;25571;47.876;10.642;2022-09-09T18:19:01;16.80;97.90
39899;DHT22;25571;47.876;10.642;2022-09-09T18:21:29;16.80;98.10
39899;DHT22;25571;47.876;10.642;2022-09-09T18:24:01;16.80;98.20
39899;DHT22;25571;47.876;10.642;2022-09-09T18:26:28;16.70;98.40
39899;DHT22;25571;47.876;10.642;2022-09-09T18:28:56;16.50;98.70
39899;DHT22;25571;47.876;10.642;2022-09-09T18:31:23;16.50;99.10
39899;DHT22;25571;47.876;10.642;2022-09-09T18:33:50;16.40;99.20
39899;DHT22;25571;47.876;10.642;2022-09-09T18:36:20;16.40;99.10
39899;DHT22;25571;47.876;10.642;2022-09-09T18:38:47;16.50;99.40
39899;DHT22;25571;47.876;10.642;2022-09-09T18:41:15;16.30;99.90
39899;DHT22;25571;47.876;10.642;2022-09-09T18:43:41;16.30;99.90
39899;DHT22;25571;47.876;10.642;2022-09-09T18:46:08;16.30;99.90
39899;DHT22;25571;47.876;10.642;2022-09-09T18:48:34;16.20;99.90
39899;DHT22;25571;47.876;10.642;2022-09-09T18:51:07;16.20;99.90
39899;DHT22;25571;47.876;10.642;2022-09-09T18:53:34;16.10;99.90
39899;DHT22;25571;47.876;10.642;2022-09-09T18:56:02;16.10;99.90
39899;DHT22;25571;47.876;10.642;2022-09-09T18:58:28;16.00;99.90
39899;DHT22;25571;47.876;10.642;2022-09-09T19:00:54;16.00;99.90
39899;DHT22;25571;47.876;10.642;2022-09-09T19:03:22;16.00;99.90
39899;DHT22;25571;47.876;10.642;2022-09-09T19:05:48;15.90;99.90
39899;DHT22;25571;47.876;10.642;2022-09-09T19:08:13;15.90;99.90
39899;DHT22;25571;47.876;10.642;2022-09-09T19:10:39;15.60;99.90
39899;DHT22;25571;47.876;10.642;2022-09-09T19:13:06;15.60;99.90
39899;DHT22;25571;47.876;10.642;2022-09-09T19:15:35;15.50;99.90
39899;DHT22;25571;47.876;10.642;2022-09-09T19:18:01;15.40;99.90
39899;DHT22;25571;47.876;10.642;2022-09-09T19:20:27;15.30;99.90
39899;DHT22;25571;47.876;10.642;2022-09-09T19:22:52;15.00;99.90
39899;DHT22;25571;47.876;10.642;2022-09-09T19:25:18;15.00;99.90
39899;DHT22;25571;47.876;10.642;2022-09-09T19:27:44;15.00;99.90
39899;DHT22;25571;47.876;10.642;2022-09-09T19:30:11;15.10;99.90
39899;DHT22;25571;47.876;10.642;2022-09-09T19:32:37;15.10;99.90
39899;DHT22;25571;47.876;10.642;2022-09-09T19:35:04;15.20;99.90
39899;DHT22;25571;47.876;10.642;2022-09-09T19:37:31;15.10;99.90
39899;DHT22;25571;47.876;10.642;2022-09-09T19:39:56;15.00;99.90
39899;DHT22;25571;47.876;10.642;2022-09-09T19:42:22;14.90;99.90
39899;DHT22;25571;47.876;10.642;2022-09-09T19:44:48;14.80;99.90
39899;DHT22;25571;47.876;10.642;2022-09-09T19:47:15;14.70;99.90
39899;DHT22;25571;47.876;10.642;2022-09-09T19:49:42;14.80;99.90
39899;DHT22;25571;47.876;10.642;2022-09-09T19:52:08;14.90;99.90
39899;DHT22;25571;47.876;10.642;2022-09-09T19:54:33;14.90;99.90
39899;DHT22;25571;47.876;10.642;2022-09-09T19:56:59;15.00;99.90
39899;DHT22;25571;47.876;10.642;2022-09-09T19:59:25;15.00;99.90
39899;DHT22;25571;47.876;10.642;2022-09-09T20:01:52;14.80;99.90
39899;DHT22;25571;47.876;10.642;2022-09-09T20:04:18;14.90;99.90
39899;DHT22;25571;47.876;10.642;2022-09-09T20:06:44;15.00;99.90
39899;DHT22;25571;47.876;10.642;2022-09-09T20:09:15;15.00;99.90
39899;DHT22;25571;47.876;10.642;2022-09-09T20:11:42;15.00;99.90
39899;DHT22;25571;47.876;10.642;2022-09-09T20:14:08;14.90;99.90
39899;DHT22;25571;47.876;10.642;2022-09-09T20:16:34;14.60;99.90
39899;DHT22;25571;47.876;10.642;2022-09-09T20:19:02;14.50;99.90
39899;DHT22;25571;47.876;10.642;2022-09-09T20:21:33;14.40;99.90
39899;DHT22;25571;47.876;10.642;2022-09-09T20:24:04;14.30;99.90
39899;DHT22;25571;47.876;10.642;2022-09-09T20:26:30;14.20;99.90
39899;DHT22;25571;47.876;10.642;2022-09-09T20:29:00;14.30;99.90
39899;DHT22;25571;47.876;10.642;2022-09-09T20:31:27;14.20;99.90
39899;DHT22;25571;47.876;10.642;2022-09-09T20:33:55;14.20;99.90
39899;DHT22;25571;47.876;10.642;2022-09-09T20:36:26;14.30;99.90
39899;DHT22;25571;47.876;10.642;2022-09-09T20:38:54;14.20;99.90
39899;DHT22;25571;47.876;10.642;2022-09-09T20:41:22;13.90;99.90
39899;DHT22;25571;47.876;10.642;2022-09-09T20:46:21;13.90;99.90